createdAt,value
2022-11-24T00:02:01.917Z,55.86
2022-11-24T00:04:06.308Z,59.39
2022-11-24T00:06:11.326Z,61.65
2022-11-24T00:08:14.887Z,68.67
2022-11-24T00:10:17.833Z,66.55
2022-11-24T00:12:20.710Z,61.52
2022-11-24T00:14:23.562Z,57.57
2022-11-24T00:16:29.199Z,56.90
2022-11-24T00:18:32.125Z,58.88
2022-11-24T00:20:34.934Z,59.43
2022-11-24T00:22:37.714Z,65.32
2022-11-24T00:24:40.742Z,70.07
2022-11-24T00:26:43.528Z,66.22
2022-11-24T00:28:48.209Z,62.81
2022-11-24T00:30:51.004Z,62.23
2022-11-24T00:32:53.845Z,60.78
2022-11-24T00:34:56.696Z,57.25
2022-11-24T00:36:59.626Z,56.23
2022-11-24T00:39:10.352Z,59.32
2022-11-24T00:41:13.979Z,66.22
2022-11-24T00:43:16.832Z,66.34
2022-11-24T00:45:19.642Z,61.25
2022-11-24T00:47:22.507Z,56.17
2022-11-24T00:49:25.412Z,56.92
2022-11-24T00:51:30.421Z,59.74
2022-11-24T00:53:33.944Z,61.60
2022-11-24T00:55:36.762Z,66.47
2022-11-24T00:57:39.496Z,69.55
2022-11-24T00:59:42.400Z,65.27
2022-11-24T01:01:45.366Z,63.36
2022-11-24T01:03:48.646Z,61.71
2022-11-24T01:05:51.436Z,58.48
2022-11-24T01:07:54.239Z,56.34
2022-11-24T01:09:57.196Z,58.30
2022-11-24T01:12:04.198Z,61.04
2022-11-24T01:14:07.076Z,65.64
2022-11-24T01:16:23.968Z,67.19
2022-11-24T01:18:27.450Z,66.69
2022-11-24T01:20:30.796Z,63.82
2022-11-24T01:22:35.081Z,60.99
2022-11-24T01:24:37.858Z,60.81
2022-11-24T01:26:40.791Z,59.60
2022-11-24T01:28:47.100Z,56.66
2022-11-24T01:31:00.256Z,57.75
2022-11-24T01:33:03.187Z,62.69
2022-11-24T01:35:07.052Z,66.13
2022-11-24T01:37:10.030Z,63.92
2022-11-24T01:39:13.573Z,60.02
2022-11-24T01:41:27.368Z,55.42
2022-11-24T01:43:30.358Z,57.65
2022-11-24T01:45:40.813Z,61.08
2022-11-24T01:47:44.443Z,65.67
2022-11-24T01:49:51.760Z,65.95
2022-11-24T01:52:20.051Z,61.99
2022-11-24T01:54:28.528Z,55.90
2022-11-24T01:56:33.648Z,56.43
2022-11-24T01:58:38.074Z,60.01
2022-11-24T02:00:44.234Z,61.51
2022-11-24T02:02:47.196Z,67.18
2022-11-24T02:04:51.123Z,67.98
2022-11-24T02:06:57.737Z,62.20
2022-11-24T02:09:07.390Z,58.63
2022-11-24T02:11:10.301Z,54.09
2022-11-24T02:13:14.945Z,56.04
2022-11-24T02:15:18.892Z,60.25
2022-11-24T02:17:22.457Z,61.16
2022-11-24T02:19:40.323Z,68.03
2022-11-24T02:21:43.267Z,68.07
2022-11-24T02:24:22.855Z,60.85
2022-11-24T02:26:41.432Z,54.99
2022-11-24T02:28:44.471Z,56.99
2022-11-24T02:30:48.594Z,60.28
2022-11-24T02:32:52.684Z,62.25
2022-11-24T02:35:04.255Z,68.19
2022-11-24T02:37:07.427Z,65.25
2022-11-24T02:39:15.286Z,58.01
2022-11-24T02:41:21.745Z,55.89
2022-11-24T02:43:24.619Z,58.39
2022-11-24T02:45:28.670Z,60.57
2022-11-24T02:47:31.561Z,65.75
2022-11-24T02:49:34.446Z,66.34
2022-11-24T02:51:37.259Z,62.59
2022-11-24T02:53:40.185Z,59.53
2022-11-24T02:55:42.979Z,53.70
2022-11-24T02:57:46.119Z,54.57
2022-11-24T02:59:49.007Z,57.44
2022-11-24T03:01:51.997Z,60.90
2022-11-24T03:03:54.760Z,65.00
2022-11-24T03:05:57.597Z,63.78
2022-11-24T03:08:00.362Z,57.26
2022-11-24T03:10:03.936Z,57.07
2022-11-24T03:12:07.163Z,60.07
2022-11-24T03:14:10.248Z,63.35
2022-11-24T03:16:13.247Z,66.65
2022-11-24T03:18:16.117Z,66.18
2022-11-24T03:20:19.028Z,63.77
2022-11-24T03:22:21.787Z,60.86
2022-11-24T03:24:24.672Z,59.45
2022-11-24T03:26:28.038Z,56.52
2022-11-24T03:28:30.761Z,56.32
2022-11-24T03:30:33.577Z,58.47
2022-11-24T03:32:36.390Z,59.98
2022-11-24T03:34:39.217Z,62.56
2022-11-24T03:36:42.108Z,69.26
2022-11-24T03:38:45.790Z,69.34
2022-11-24T03:40:48.575Z,65.49
2022-11-24T03:42:51.359Z,61.23
2022-11-24T03:44:54.135Z,56.95
2022-11-24T03:46:56.905Z,54.80
2022-11-24T03:48:59.829Z,56.58
2022-11-24T03:51:03.342Z,58.83
2022-11-24T03:53:06.094Z,61.18
2022-11-24T03:55:08.967Z,65.82
2022-11-24T03:57:11.805Z,67.15
2022-11-24T03:59:14.866Z,66.70
2022-11-24T04:01:18.647Z,63.22
2022-11-24T04:03:21.788Z,61.92
2022-11-24T04:05:25.438Z,59.72
2022-11-24T04:07:28.329Z,55.32
2022-11-24T04:09:31.163Z,54.28
2022-11-24T04:11:52.922Z,57.77
2022-11-24T04:13:55.746Z,59.71
2022-11-24T04:15:58.666Z,62.25
2022-11-24T04:18:01.440Z,67.32
2022-11-24T04:20:05.444Z,66.82
2022-11-24T04:22:09.066Z,61.38
2022-11-24T04:24:11.995Z,54.97
2022-11-24T04:26:14.903Z,53.47
2022-11-24T04:28:17.707Z,55.00
2022-11-24T04:30:21.679Z,56.48
2022-11-24T04:32:24.509Z,59.69
2022-11-24T04:34:27.313Z,63.17
2022-11-24T04:36:30.182Z,68.59
2022-11-24T04:39:24.793Z,71.14
2022-11-24T04:40:55.834Z,65.63
2022-11-24T04:42:58.693Z,59.88
2022-11-24T04:45:01.651Z,54.86
2022-11-24T04:47:04.884Z,54.05
2022-11-24T04:49:11.758Z,57.07
2022-11-24T04:51:15.592Z,59.82
2022-11-24T04:53:18.430Z,62.11
2022-11-24T04:55:21.362Z,67.46
2022-11-24T04:57:26.287Z,68.15
2022-11-24T04:59:29.141Z,65.04
2022-11-24T05:01:32.801Z,61.82
2022-11-24T05:03:36.965Z,60.55
2022-11-24T05:05:39.875Z,60.45
2022-11-24T05:07:42.735Z,59.72
2022-11-24T05:10:05.060Z,56.62
2022-11-24T05:12:07.881Z,56.55
2022-11-24T05:14:10.723Z,59.35
2022-11-24T05:16:13.580Z,61.58
2022-11-24T05:18:16.712Z,65.90
2022-11-24T05:20:20.308Z,67.55
2022-11-24T05:22:23.201Z,65.60
2022-11-24T05:24:26.037Z,62.93
2022-11-24T05:26:29.065Z,61.22
2022-11-24T05:28:32.484Z,60.53
2022-11-24T05:30:37.870Z,59.96
2022-11-24T05:32:40.807Z,57.77
2022-11-24T05:34:43.657Z,57.07
2022-11-24T05:36:56.515Z,58.93
2022-11-24T05:38:59.343Z,59.98
2022-11-24T05:41:03.740Z,64.00
2022-11-24T05:43:15.416Z,67.88
2022-11-24T05:45:20.413Z,66.26
2022-11-24T05:47:23.923Z,63.22
2022-11-24T05:49:26.677Z,61.18
2022-11-24T05:51:30.616Z,60.45
2022-11-24T05:53:33.418Z,60.14
2022-11-24T05:55:37.102Z,59.79
2022-11-24T05:57:39.903Z,57.15
2022-11-24T05:59:42.715Z,56.47
2022-11-24T06:01:45.608Z,57.99
2022-11-24T06:03:48.434Z,60.83
2022-11-24T06:05:51.445Z,65.40
2022-11-24T06:07:54.996Z,67.31
2022-11-24T06:09:57.807Z,65.20
2022-11-24T06:12:00.581Z,62.97
2022-11-24T06:14:08.236Z,62.36
2022-11-24T06:16:14.921Z,61.94
2022-11-24T06:18:17.821Z,61.19
2022-11-24T06:20:20.642Z,60.84
2022-11-24T06:25:10.889Z,57.43
2022-11-24T06:27:14.252Z,57.35
2022-11-24T06:29:17.075Z,60.60
2022-11-24T06:31:19.952Z,61.62
2022-11-24T06:33:22.882Z,64.98
2022-11-24T06:35:26.012Z,68.93
2022-11-24T06:37:28.977Z,67.60
2022-11-24T06:39:31.983Z,65.70
2022-11-24T06:41:34.844Z,63.24
2022-11-24T06:43:37.918Z,62.19
2022-11-24T06:45:40.801Z,61.59
2022-11-24T06:47:43.672Z,61.30
2022-11-24T06:49:46.564Z,61.94
2022-11-24T06:51:49.358Z,62.09
2022-11-24T06:53:52.258Z,57.31
2022-11-24T06:55:59.232Z,54.18
2022-11-24T06:58:02.252Z,55.66
2022-11-24T07:00:08.010Z,58.30
2022-11-24T07:02:10.953Z,59.89
2022-11-24T07:04:15.060Z,61.29
2022-11-24T07:06:19.712Z,67.30
2022-11-24T07:08:22.927Z,69.74
2022-11-24T07:10:25.847Z,68.25
2022-11-24T07:12:29.396Z,65.48
2022-11-24T07:14:32.493Z,60.19
2022-11-24T07:16:36.056Z,54.69
2022-11-24T07:18:38.911Z,54.76
2022-11-24T07:20:41.743Z,58.35
2022-11-24T07:22:44.722Z,59.92
2022-11-24T07:24:47.601Z,64.00
2022-11-24T07:26:50.637Z,68.60
2022-11-24T07:28:53.625Z,65.69
2022-11-24T07:30:57.014Z,60.61
2022-11-24T07:33:03.821Z,58.19
2022-11-24T07:35:06.949Z,56.95
2022-11-24T07:37:09.785Z,58.89
2022-11-24T07:39:12.837Z,62.92
2022-11-24T07:41:17.568Z,67.80
2022-11-24T07:43:20.511Z,65.83
2022-11-24T07:45:23.314Z,62.75
2022-11-24T07:47:26.097Z,60.48
2022-11-24T07:49:29.000Z,55.52
2022-11-24T07:51:31.925Z,55.48
2022-11-24T07:53:35.511Z,56.75
2022-11-24T07:55:38.659Z,58.47
2022-11-24T07:57:41.499Z,61.50
2022-11-24T07:59:44.283Z,65.33
2022-11-24T08:01:47.576Z,68.73
2022-11-24T08:03:50.511Z,65.24
2022-11-24T08:08:20.476Z,59.98
2022-11-24T08:10:23.396Z,56.23
2022-11-24T08:12:26.164Z,55.35
2022-11-24T08:14:29.063Z,57.12
2022-11-24T08:16:32.386Z,58.88
2022-11-24T08:18:36.474Z,59.28
2022-11-24T08:20:39.369Z,63.96
2022-11-24T08:22:42.743Z,68.28
2022-11-24T08:24:48.541Z,67.15
2022-11-24T08:26:51.369Z,66.44
2022-11-24T08:28:56.810Z,60.60
2022-11-24T08:31:09.190Z,55.67
2022-11-24T08:33:12.918Z,54.89
2022-11-24T08:35:15.857Z,57.54
2022-11-24T08:37:18.935Z,60.75
2022-11-24T08:39:21.795Z,62.89
2022-11-24T08:41:26.442Z,68.15
2022-11-24T08:43:29.372Z,65.16
2022-11-24T08:45:35.463Z,62.80
2022-11-24T08:47:42.917Z,61.49
2022-11-24T08:49:45.732Z,58.07
2022-11-24T08:51:50.880Z,55.13
2022-11-24T08:53:58.849Z,58.40
2022-11-24T08:56:02.746Z,60.48
2022-11-24T08:58:05.619Z,63.23
2022-11-24T09:00:09.162Z,66.34
2022-11-24T09:02:13.418Z,65.61
2022-11-24T09:04:16.380Z,62.98
2022-11-24T09:06:25.186Z,62.24
2022-11-24T09:08:29.855Z,61.21
2022-11-24T09:10:32.732Z,56.96
2022-11-24T09:12:35.673Z,54.95
2022-11-24T09:14:38.592Z,56.73
2022-11-24T09:16:41.625Z,59.11
2022-11-24T09:18:44.970Z,60.85
2022-11-24T09:20:48.149Z,65.84
2022-11-24T09:22:51.068Z,67.92
2022-11-24T09:24:53.818Z,67.22
2022-11-24T09:26:57.167Z,60.94
2022-11-24T09:29:01.892Z,55.91
2022-11-24T09:31:06.855Z,56.23
2022-11-24T09:33:09.860Z,58.04
2022-11-24T09:35:12.697Z,58.45
2022-11-24T09:37:15.710Z,60.81
2022-11-24T09:39:18.663Z,67.52
2022-11-24T09:41:34.298Z,66.96
2022-11-24T09:43:46.373Z,66.14
2022-11-24T09:46:06.033Z,63.96
2022-11-24T09:48:24.241Z,61.80
2022-11-24T09:50:34.331Z,58.34
2022-11-24T09:53:03.880Z,55.11
2022-11-24T09:55:24.049Z,57.79
2022-11-24T09:57:34.258Z,59.95
2022-11-24T09:59:42.116Z,63.26
2022-11-24T10:01:47.943Z,66.48
2022-11-24T10:03:52.759Z,62.63
2022-11-24T10:05:56.027Z,59.43
2022-11-24T10:08:23.168Z,56.74
2022-11-24T10:10:53.632Z,58.26
2022-11-24T10:13:02.241Z,59.13
2022-11-24T10:16:02.897Z,64.01
2022-11-24T10:18:52.448Z,67.44
2022-11-24T10:21:47.010Z,65.31
2022-11-24T10:24:22.548Z,60.64
2022-11-24T10:26:36.862Z,54.66
2022-11-24T10:28:52.783Z,56.37
2022-11-24T10:31:16.551Z,59.13
2022-11-24T10:33:28.774Z,60.16
2022-11-24T10:35:47.067Z,65.46
2022-11-24T10:37:58.131Z,68.05
2022-11-24T10:40:33.396Z,64.66
2022-11-24T10:42:37.485Z,56.57
2022-11-24T10:44:42.939Z,54.08
2022-11-24T10:46:46.079Z,56.08
2022-11-24T10:48:57.938Z,58.00
2022-11-24T10:51:35.590Z,58.71
2022-11-24T10:53:42.177Z,60.17
2022-11-24T10:55:54.170Z,66.10
2022-11-24T10:58:15.549Z,66.31
2022-11-24T11:00:18.309Z,62.08
2022-11-24T11:03:16.797Z,55.96
2022-11-24T11:05:32.407Z,53.88
2022-11-24T11:07:35.352Z,56.45
2022-11-24T11:09:38.296Z,57.72
2022-11-24T11:11:41.978Z,58.21
2022-11-24T11:14:03.082Z,60.17
2022-11-24T11:16:23.650Z,66.04
2022-11-24T11:18:36.314Z,67.52
2022-11-24T11:20:39.108Z,63.63
2022-11-24T11:22:45.131Z,61.79
2022-11-24T11:25:01.183Z,55.56
2022-11-24T11:27:16.359Z,52.93
2022-11-24T11:34:28.615Z,59.89
2022-11-24T11:36:33.190Z,65.89
2022-11-24T11:38:39.767Z,68.98
2022-11-24T11:40:43.937Z,62.36
2022-11-24T11:43:03.938Z,57.47
2022-11-24T11:45:18.434Z,54.71
2022-11-24T11:47:29.439Z,56.55
2022-11-24T11:49:39.493Z,59.54
2022-11-24T11:51:49.320Z,61.97
2022-11-24T11:54:11.088Z,66.91
2022-11-24T11:56:23.307Z,66.05
2022-11-24T11:59:00.802Z,57.60
2022-11-24T12:01:26.098Z,55.56
2022-11-24T12:03:47.349Z,58.16
2022-11-24T12:06:34.621Z,59.61
2022-11-24T12:09:21.505Z,61.37
2022-11-24T12:11:35.336Z,71.19
2022-11-24T12:13:53.033Z,64.50
2022-11-24T12:15:59.018Z,60.74
2022-11-24T12:18:56.673Z,59.26
2022-11-24T12:21:25.946Z,56.30
2022-11-24T12:23:38.391Z,58.99
2022-11-24T12:25:47.595Z,59.81
2022-11-24T12:28:19.293Z,61.52
2022-11-24T12:30:23.024Z,68.31
2022-11-24T12:33:03.693Z,72.09
2022-11-24T12:35:06.437Z,65.29
2022-11-24T12:37:47.345Z,56.23
2022-11-24T12:40:01.797Z,54.72
2022-11-24T12:42:43.937Z,57.30
2022-11-24T12:45:13.620Z,60.26
2022-11-24T12:47:40.663Z,68.23
2022-11-24T12:50:13.005Z,67.56
2022-11-24T12:52:36.911Z,60.90
2022-11-24T12:54:41.244Z,57.63
2022-11-24T12:57:09.269Z,57.26
2022-11-24T12:59:27.936Z,60.19
2022-11-24T13:01:37.725Z,65.96
2022-11-24T13:03:46.398Z,66.34
2022-11-24T13:06:07.797Z,62.93
2022-11-24T13:08:11.171Z,58.73
2022-11-24T13:13:06.320Z,59.75
2022-11-24T13:15:43.333Z,59.49
2022-11-24T13:18:01.157Z,64.13
2022-11-24T13:20:37.328Z,66.39
2022-11-24T13:22:45.483Z,68.00
2022-11-24T13:25:15.001Z,67.79
2022-11-24T13:27:24.502Z,68.08
2022-11-24T13:29:27.192Z,67.96
2022-11-24T13:31:30.240Z,65.87
2022-11-24T13:33:34.098Z,64.34
2022-11-24T13:35:37.740Z,63.00
2022-11-24T13:37:40.559Z,62.10
2022-11-24T13:40:03.366Z,61.83
2022-11-24T13:42:06.273Z,60.54
2022-11-24T13:44:24.301Z,59.27
2022-11-24T13:47:00.201Z,59.55
2022-11-24T13:49:14.563Z,64.32
2022-11-24T13:51:24.052Z,66.82
2022-11-24T13:53:47.698Z,65.19
2022-11-24T13:55:59.771Z,62.99
2022-11-24T13:58:31.767Z,62.54
2022-11-24T14:00:58.451Z,61.91
2022-11-24T14:03:06.883Z,60.54
2022-11-24T14:05:14.699Z,56.89
2022-11-24T14:07:17.729Z,57.66
2022-11-24T14:09:46.618Z,58.16
2022-11-24T14:12:16.306Z,60.69
2022-11-24T14:14:23.042Z,66.53
2022-11-24T14:16:26.115Z,68.80
2022-11-24T14:18:29.303Z,66.87
2022-11-24T14:20:32.060Z,65.97
2022-11-24T14:22:39.408Z,66.47
2022-11-24T14:24:45.482Z,65.81
2022-11-24T14:26:49.166Z,63.13
2022-11-24T14:28:53.848Z,61.32
2022-11-24T14:31:08.703Z,61.84
2022-11-24T14:33:12.876Z,61.02
2022-11-24T14:35:24.176Z,61.20
2022-11-24T14:37:27.044Z,60.92
2022-11-24T14:39:30.340Z,60.98
2022-11-24T14:41:34.042Z,59.92
2022-11-24T14:43:36.923Z,59.98
2022-11-24T14:45:48.311Z,59.69
2022-11-24T14:47:51.131Z,57.10
2022-11-24T14:49:56.058Z,56.06
2022-11-24T14:52:03.216Z,57.27
2022-11-24T14:56:39.593Z,65.43
2022-11-24T14:58:42.710Z,67.65
2022-11-24T15:00:45.686Z,66.52
2022-11-24T15:02:54.269Z,63.31
2022-11-24T15:05:03.383Z,62.30
2022-11-24T15:07:23.869Z,61.00
2022-11-24T15:09:50.531Z,61.00
2022-11-24T15:11:54.713Z,60.08
2022-11-24T15:13:57.452Z,60.52
2022-11-24T15:16:03.935Z,59.23
2022-11-24T15:18:25.888Z,57.04
2022-11-24T15:20:35.161Z,57.66
2022-11-24T15:22:44.287Z,60.22
2022-11-24T15:24:53.423Z,65.85
2022-11-24T15:27:00.840Z,68.63
2022-11-24T15:29:03.648Z,61.83
2022-11-24T15:31:10.888Z,59.37
2022-11-24T15:33:18.325Z,56.35
2022-11-24T15:35:22.964Z,55.55
2022-11-24T15:37:28.863Z,56.68
2022-11-24T15:39:35.700Z,58.88
2022-11-24T15:41:38.478Z,61.63
2022-11-24T15:43:41.471Z,67.27
2022-11-24T15:45:44.278Z,68.26
2022-11-24T15:47:47.334Z,62.71
2022-11-24T15:49:50.219Z,59.71
2022-11-24T15:51:53.031Z,57.18
2022-11-24T15:54:14.045Z,56.22
2022-11-24T15:56:25.576Z,59.33
2022-11-24T15:58:28.399Z,60.62
2022-11-24T16:00:32.846Z,64.52
2022-11-24T16:02:35.647Z,69.18
2022-11-24T16:04:41.666Z,65.62
2022-11-24T16:06:44.528Z,61.45
2022-11-24T16:08:47.822Z,56.64
2022-11-24T16:10:51.357Z,54.61
2022-11-24T16:12:54.098Z,55.76
2022-11-24T16:14:56.978Z,56.52
2022-11-24T16:16:59.730Z,59.06
2022-11-24T16:19:03.037Z,61.68
2022-11-24T16:21:07.259Z,65.24
2022-11-24T16:23:10.036Z,68.24
2022-11-24T16:25:13.219Z,66.10
2022-11-24T16:27:16.039Z,67.02
2022-11-24T16:29:21.051Z,64.29
2022-11-24T16:31:23.935Z,60.40
2022-11-24T16:33:29.000Z,55.65
2022-11-24T16:35:31.879Z,54.90
2022-11-24T16:37:34.754Z,56.34
2022-11-24T16:39:37.507Z,58.75
2022-11-24T16:41:40.857Z,60.97
2022-11-24T16:53:24.925Z,56.57
2022-11-24T16:55:27.670Z,54.40
2022-11-24T16:57:30.461Z,55.89
2022-11-24T16:59:33.973Z,57.90
2022-11-24T17:01:37.334Z,59.25
2022-11-24T17:03:41.115Z,60.56
2022-11-24T17:05:44.007Z,66.19
2022-11-24T17:07:46.844Z,69.20
2022-11-24T17:09:49.678Z,65.01
2022-11-24T17:11:52.564Z,61.47
2022-11-24T17:13:57.931Z,60.10
2022-11-24T17:16:08.916Z,59.72
2022-11-24T17:18:28.365Z,56.36
2022-11-24T17:20:31.644Z,55.22
2022-11-24T17:22:34.465Z,57.19
2022-11-24T17:24:37.293Z,59.31
2022-11-24T17:26:44.667Z,60.81
2022-11-24T17:28:50.475Z,65.51
2022-11-24T17:30:53.312Z,69.07
2022-11-24T17:32:57.336Z,63.89
2022-11-24T17:35:00.141Z,61.50
2022-11-24T17:37:03.675Z,59.37
2022-11-24T17:39:07.368Z,55.04
2022-11-24T17:41:11.316Z,55.50
2022-11-24T17:43:14.138Z,57.48
2022-11-24T17:45:17.222Z,59.26
2022-11-24T17:47:19.989Z,60.71
2022-11-24T17:49:23.388Z,65.87
2022-11-24T17:51:27.176Z,69.01
2022-11-24T17:53:30.941Z,62.35
2022-11-24T17:55:33.744Z,56.45
2022-11-24T17:57:36.708Z,55.31
2022-11-24T17:59:39.476Z,57.43
2022-11-24T18:01:42.458Z,57.93
2022-11-24T18:03:48.985Z,60.01
2022-11-24T18:05:56.058Z,65.38
2022-11-24T18:07:59.921Z,69.28
2022-11-24T18:10:03.372Z,62.58
2022-11-24T18:12:07.317Z,60.04
2022-11-24T18:14:10.199Z,56.67
2022-11-24T18:16:13.956Z,56.08
2022-11-24T18:18:16.885Z,57.53
2022-11-24T18:20:19.782Z,58.97
2022-11-24T18:22:43.017Z,60.87
2022-11-24T18:24:45.525Z,65.26
2022-11-24T18:26:48.278Z,65.53
2022-11-24T18:28:51.333Z,65.29
2022-11-24T18:31:01.275Z,65.79
2022-11-24T18:33:04.090Z,65.55
2022-11-24T18:35:07.343Z,66.07
2022-11-24T18:37:13.510Z,66.45
2022-11-24T18:39:18.219Z,66.46
2022-11-24T18:41:22.328Z,66.92
2022-11-24T18:43:27.511Z,67.29
2022-11-24T18:45:30.655Z,67.69
2022-11-24T18:47:33.644Z,71.51
2022-11-24T18:49:36.490Z,71.59
2022-11-24T18:51:39.284Z,66.05
2022-11-24T18:53:44.060Z,62.55
2022-11-24T18:56:05.404Z,58.53
2022-11-24T18:58:08.227Z,55.45
2022-11-24T19:00:11.695Z,56.72
2022-11-24T19:02:14.637Z,58.83
2022-11-24T19:04:17.545Z,60.83
2022-11-24T19:06:29.048Z,65.69
2022-11-24T19:08:32.054Z,68.40
2022-11-24T19:10:39.170Z,63.02
2022-11-24T19:12:42.634Z,61.02
2022-11-24T19:14:45.544Z,55.51
2022-11-24T19:16:48.529Z,54.37
2022-11-24T19:18:54.326Z,55.80
2022-11-24T19:20:58.285Z,58.24
2022-11-24T19:23:01.262Z,59.73
2022-11-24T19:25:04.422Z,61.56
2022-11-24T19:27:08.006Z,67.71
2022-11-24T19:29:11.342Z,69.64
2022-11-24T19:31:15.958Z,64.74
2022-11-24T19:33:19.057Z,59.28
2022-11-24T19:35:21.978Z,53.87
2022-11-24T19:37:24.746Z,54.37
2022-11-24T19:39:27.904Z,56.29
2022-11-24T19:41:32.087Z,58.19
2022-11-24T19:43:35.217Z,60.19
2022-11-24T19:45:44.025Z,60.19
2022-11-24T19:47:46.959Z,68.02
2022-11-24T19:49:49.856Z,70.11
2022-11-24T19:51:53.574Z,63.33
2022-11-24T19:53:57.029Z,59.33
2022-11-24T19:56:07.576Z,54.95
2022-11-24T19:58:10.384Z,55.11
2022-11-24T20:00:14.709Z,57.04
2022-11-24T20:02:18.362Z,57.35
2022-11-24T20:04:21.524Z,60.06
2022-11-24T20:06:25.878Z,65.94
2022-11-24T20:08:31.231Z,69.48
2022-11-24T20:10:34.015Z,64.65
2022-11-24T20:12:36.782Z,59.82
2022-11-24T20:14:39.848Z,54.71
2022-11-24T20:16:43.452Z,54.59
2022-11-24T20:18:47.726Z,56.30
2022-11-24T20:20:50.573Z,58.43
2022-11-24T20:22:53.582Z,59.84
2022-11-24T20:24:56.451Z,60.96
2022-11-24T20:27:00.157Z,65.66
2022-11-24T20:29:04.091Z,66.79
2022-11-24T20:31:13.177Z,66.15
2022-11-24T20:33:16.139Z,66.51
2022-11-24T20:35:19.073Z,67.36
2022-11-24T20:37:22.727Z,64.47
2022-11-24T20:39:27.849Z,60.50
2022-11-24T20:41:34.065Z,54.51
2022-11-24T20:43:38.224Z,53.88
2022-11-24T20:45:41.159Z,55.65
2022-11-24T20:47:43.991Z,57.86
2022-11-24T20:49:46.839Z,59.81
2022-11-24T20:51:54.507Z,61.51
2022-11-24T20:54:00.698Z,64.50
2022-11-24T20:56:26.431Z,71.81
2022-11-24T20:58:29.286Z,65.92
2022-11-24T21:00:32.115Z,59.41
2022-11-24T21:02:35.030Z,53.67
2022-11-24T21:04:38.349Z,53.40
2022-11-24T21:06:41.737Z,56.11
2022-11-24T21:08:44.790Z,58.17
2022-11-24T21:10:58.825Z,59.80
2022-11-24T21:13:01.687Z,61.53
2022-11-24T21:15:07.676Z,67.44
2022-11-24T21:17:10.730Z,69.81
2022-11-24T21:19:15.050Z,64.65
2022-11-24T21:21:20.068Z,59.45
2022-11-24T21:23:22.848Z,53.61
2022-11-24T21:25:25.688Z,54.05
2022-11-24T21:27:28.863Z,56.44
2022-11-24T21:29:31.695Z,58.60
2022-11-24T21:31:37.146Z,60.36
2022-11-24T21:34:00.230Z,65.99
2022-11-24T21:36:04.939Z,66.90
2022-11-24T21:38:07.791Z,62.28
2022-11-24T21:40:11.151Z,56.89
2022-11-24T21:42:13.974Z,55.24
2022-11-24T21:44:16.855Z,57.09
2022-11-24T21:46:19.840Z,58.94
2022-11-24T21:48:22.689Z,60.22
2022-11-24T21:50:25.698Z,64.79
2022-11-24T21:52:28.472Z,67.06
2022-11-24T21:54:31.200Z,64.97
2022-11-24T21:56:34.056Z,64.05
2022-11-24T21:58:36.815Z,62.05
2022-11-24T22:00:39.720Z,59.65
2022-11-24T22:02:57.805Z,54.77
2022-11-24T22:06:35.143Z,56.53
2022-11-24T22:08:38.271Z,58.03
2022-11-24T22:10:41.026Z,59.77
2022-11-24T22:12:43.919Z,61.26
2022-11-24T22:14:46.782Z,65.24
2022-11-24T22:16:49.673Z,68.35
2022-11-24T22:18:52.825Z,65.71
2022-11-24T22:20:56.364Z,64.41
2022-11-24T22:22:59.179Z,66.62
2022-11-24T22:25:01.947Z,65.20
2022-11-24T22:27:04.771Z,65.32
2022-11-24T22:29:08.639Z,61.53
2022-11-24T22:31:14.591Z,55.98
2022-11-24T22:33:17.407Z,54.63
2022-11-24T22:35:20.239Z,56.84
2022-11-24T22:37:23.123Z,58.93
2022-11-24T22:39:25.899Z,60.42
2022-11-24T22:41:30.032Z,64.62
2022-11-24T22:43:34.464Z,66.68
2022-11-24T22:45:37.407Z,64.04
2022-11-24T22:47:40.239Z,64.91
2022-11-24T22:49:43.008Z,63.87
2022-11-24T22:51:45.794Z,60.40
2022-11-24T22:53:50.576Z,55.05
2022-11-24T22:55:53.353Z,54.11
2022-11-24T22:57:57.201Z,55.86
2022-11-24T23:00:00.083Z,57.88
2022-11-24T23:02:02.856Z,58.38
2022-11-24T23:04:05.730Z,60.14
2022-11-24T23:06:12.278Z,64.59
2022-11-24T23:08:15.093Z,69.73
2022-11-24T23:10:18.142Z,66.55
2022-11-24T23:12:20.923Z,62.37
2022-11-24T23:14:23.703Z,57.01
2022-11-24T23:16:26.792Z,55.20
2022-11-24T23:18:30.151Z,56.82
2022-11-24T23:20:35.220Z,56.91
2022-11-24T23:22:38.072Z,59.66
2022-11-24T23:24:41.029Z,60.53
2022-11-24T23:26:43.852Z,63.18
2022-11-24T23:28:47.177Z,69.89
2022-11-24T23:30:49.973Z,69.34
2022-11-24T23:32:52.790Z,65.52
2022-11-24T23:34:55.585Z,61.02
2022-11-24T23:36:58.306Z,56.13
2022-11-24T23:39:06.577Z,54.79
2022-11-24T23:41:12.455Z,56.90
2022-11-24T23:43:15.266Z,58.73
2022-11-24T23:45:18.013Z,61.00
2022-11-24T23:47:20.821Z,63.61
2022-11-24T23:49:23.583Z,69.28
2022-11-24T23:51:29.123Z,66.97
2022-11-24T23:53:35.737Z,63.50
2022-11-24T23:55:38.470Z,60.24
2022-11-24T23:57:41.240Z,55.20
2022-11-24T23:59:44.087Z,54.14
